RJTT/HND METAR and TAF weather

Enter ICAO airport designator
Station Type Date Time Source
RJTT METAR 2022/07/01 01:30 UTC NOAA

RJTT 010130Z 18009KT 9999 FEW030 33/24 Q1015 NOSIG RMK 1CU030 A2997


Station Type Date Time Source
RJTT Decoded METAR 2022/07/01 01:30 UTC NOAA

Tokyo International Airport, Japan (RJTT) 35-33N 139-47E 8M
Jun 30, 2022 - 09:30 PM EDT / 2022.07.01 0130 UTC
Wind: from the S (180 degrees) at 10 MPH (9 KT):0
Visibility: greater than 7 mile(s):0
Sky conditions: mostly clear
Temperature: 91 F (33 C)
Heat index: 101.5 F (38.6 C):1
Dew Point: 75 F (24 C)
Relative Humidity: 59%
Pressure (altimeter): 29.97 in. Hg (1015 hPa)
ob: RJTT 010130Z 18009KT 9999 FEW030 33/24 Q1015 NOSIG RMK 1CU030 A2997
cycle: 1

Station Type Date Time Source
RJTT TAF 2022/06/30 18:31 UTC NOAA

TAF RJTT 301705Z 3018/0200 18006KT 9999 FEW020
BECMG 0104/0106 18016KT
BECMG 0118/0121 36004KT

Example: see airport list